RKSO

Osan Air Base Airport

South Korea
METAR RKSO 151858Z 03001KT 3SM BR BKN150 05/02 A3021 RMK SLP214 WND DATA ESTMD ALSTG ESTMD
Observed Flight Rules
Nov-15 @ 18:58 UTC (22 minutes ago) Marginal Visual Flight Rules
Wind Visibility Clouds Conditions
30° at 1 knots 4,828 meters
  • Broken at 15,000' AGL
  • Mist
Temperatures Readings
Current 5°C / 41°F
Dewpoint 2°C / 36°F
Humidity 81%
Altimeter 30.21" Hg
Pressure 1021.4 hPa
Elevation 12
METAR RKSO 151858Z 03001KT 3SM BR BKN150 05/02 A3021 RMK SLP214 WND DATA ESTMD ALSTG ESTMD
Observed Flight Rules
Nov-15 @ 18:58 UTC
(22 minutes ago)
MVFR
Wind Visibility
30° at 1 knots 4,828 meters
Clouds
  • Broken at 15,000' AGL
Conditions
  • Mist
Temperature Dewpoint
5°C / 41°F 2°C / 36°F
Humidity Altimeter Pressure
81% 30.21" Hg 1021.4 hPa